sensor_id;sensor_type;location;lat;lon;timestamp;pressure;altitude;pressure_sealevel;temperature;humidity
65758;BME280;52495;52.208;5.158;2023-03-15T00:00:06;101095.69;;;2.63;99.19
65758;BME280;52495;52.208;5.158;2023-03-15T00:02:34;101094.03;;;2.65;100.00
65758;BME280;52495;52.208;5.158;2023-03-15T00:05:01;101087.28;;;2.67;99.38
65758;BME280;52495;52.208;5.158;2023-03-15T00:07:28;101089.88;;;2.70;99.60
65758;BME280;52495;52.208;5.158;2023-03-15T00:09:55;101089.88;;;2.70;99.27
65758;BME280;52495;52.208;5.158;2023-03-15T00:12:24;101107.75;;;2.71;99.51
65758;BME280;52495;52.208;5.158;2023-03-15T00:14:50;101104.38;;;2.72;99.15
65758;BME280;52495;52.208;5.158;2023-03-15T00:17:17;101112.81;;;2.70;99.54
65758;BME280;52495;52.208;5.158;2023-03-15T00:19:44;101111.16;;;2.72;100.00
65758;BME280;52495;52.208;5.158;2023-03-15T00:22:12;101104.44;;;2.77;100.00
65758;BME280;52495;52.208;5.158;2023-03-15T00:24:39;101102.00;;;2.82;100.00
65758;BME280;52495;52.208;5.158;2023-03-15T00:27:06;101108.03;;;2.87;100.00
65758;BME280;52495;52.208;5.158;2023-03-15T00:29:36;101112.34;;;2.90;100.00
65758;BME280;52495;52.208;5.158;2023-03-15T00:32:03;101115.75;;;2.92;100.00
65758;BME280;52495;52.208;5.158;2023-03-15T00:34:31;101107.28;;;2.93;99.58
65758;BME280;52495;52.208;5.158;2023-03-15T00:36:58;101110.78;;;2.98;99.87
65758;BME280;52495;52.208;5.158;2023-03-15T00:39:25;101113.31;;;2.96;99.72
65758;BME280;52495;52.208;5.158;2023-03-15T00:41:52;101115.06;;;2.99;100.00
65758;BME280;52495;52.208;5.158;2023-03-15T00:44:21;101116.75;;;2.98;100.00
65758;BME280;52495;52.208;5.158;2023-03-15T00:46:50;101111.75;;;3.03;100.00
65758;BME280;52495;52.208;5.158;2023-03-15T00:49:17;101121.94;;;3.03;100.00
65758;BME280;52495;52.208;5.158;2023-03-15T00:51:43;101120.25;;;3.03;99.98
65758;BME280;52495;52.208;5.158;2023-03-15T00:54:10;101129.66;;;3.06;100.00
65758;BME280;52495;52.208;5.158;2023-03-15T00:56:39;101138.16;;;3.05;100.00
65758;BME280;52495;52.208;5.158;2023-03-15T00:59:06;101141.53;;;3.06;100.00
65758;BME280;52495;52.208;5.158;2023-03-15T01:01:33;101139.81;;;3.04;100.00
65758;BME280;52495;52.208;5.158;2023-03-15T01:04:04;101154.28;;;3.04;100.00
65758;BME280;52495;52.208;5.158;2023-03-15T01:06:31;101149.19;;;3.06;100.00
65758;BME280;52495;52.208;5.158;2023-03-15T01:08:58;101149.19;;;3.04;100.00
65758;BME280;52495;52.208;5.158;2023-03-15T01:11:27;101156.75;;;3.01;99.80
65758;BME280;52495;52.208;5.158;2023-03-15T01:13:57;101145.66;;;2.97;100.00
65758;BME280;52495;52.208;5.158;2023-03-15T01:16:24;101155.03;;;3.00;99.99
65758;BME280;52495;52.208;5.158;2023-03-15T01:18:52;101155.84;;;2.97;99.68
65758;BME280;52495;52.208;5.158;2023-03-15T01:21:22;101160.06;;;2.95;100.00
65758;BME280;52495;52.208;5.158;2023-03-15T01:23:49;101160.84;;;2.93;99.97
65758;BME280;52495;52.208;5.158;2023-03-15T01:26:20;101158.34;;;2.94;100.00
65758;BME280;52495;52.208;5.158;2023-03-15T01:28:47;101169.38;;;2.95;99.97
65758;BME280;52495;52.208;5.158;2023-03-15T01:31:16;101168.50;;;2.93;99.93
65758;BME280;52495;52.208;5.158;2023-03-15T01:33:43;101173.66;;;2.96;100.00
65758;BME280;52495;52.208;5.158;2023-03-15T01:36:11;101176.22;;;2.96;99.80
65758;BME280;52495;52.208;5.158;2023-03-15T01:38:40;101177.03;;;2.95;99.27
65758;BME280;52495;52.208;5.158;2023-03-15T01:41:08;101184.75;;;2.98;99.94
65758;BME280;52495;52.208;5.158;2023-03-15T01:43:36;101177.13;;;2.99;99.57
65758;BME280;52495;52.208;5.158;2023-03-15T01:46:14;101189.00;;;2.97;100.00
65758;BME280;52495;52.208;5.158;2023-03-15T01:48:48;101190.75;;;3.00;99.91
65758;BME280;52495;52.208;5.158;2023-03-15T01:51:25;101191.59;;;2.99;100.00
65758;BME280;52495;52.208;5.158;2023-03-15T01:53:58;101189.88;;;2.99;100.00
65758;BME280;52495;52.208;5.158;2023-03-15T01:56:32;101196.75;;;3.02;99.71
65758;BME280;52495;52.208;5.158;2023-03-15T01:59:02;101191.66;;;3.03;99.81
65758;BME280;52495;52.208;5.158;2023-03-15T02:01:31;101195.91;;;3.03;100.00
65758;BME280;52495;52.208;5.158;2023-03-15T02:04:02;101198.47;;;3.03;100.00
65758;BME280;52495;52.208;5.158;2023-03-15T02:06:35;101208.69;;;3.04;100.00
65758;BME280;52495;52.208;5.158;2023-03-15T02:09:07;101201.84;;;3.02;99.85
65758;BME280;52495;52.208;5.158;2023-03-15T02:11:38;101200.16;;;3.02;99.98
65758;BME280;52495;52.208;5.158;2023-03-15T02:14:09;101208.59;;;3.00;100.00
65758;BME280;52495;52.208;5.158;2023-03-15T02:16:39;101213.69;;;2.98;100.00
65758;BME280;52495;52.208;5.158;2023-03-15T02:19:17;101214.44;;;2.94;100.00
65758;BME280;52495;52.208;5.158;2023-03-15T02:21:53;101212.66;;;2.90;100.00
65758;BME280;52495;52.208;5.158;2023-03-15T02:24:32;101216.63;;;2.77;100.00
65758;BME280;52495;52.208;5.158;2023-03-15T02:27:02;101227.88;;;2.85;100.00
65758;BME280;52495;52.208;5.158;2023-03-15T02:29:31;101239.00;;;2.91;100.00
65758;BME280;52495;52.208;5.158;2023-03-15T02:31:58;101232.97;;;2.85;100.00
65758;BME280;52495;52.208;5.158;2023-03-15T02:34:25;101233.88;;;2.89;100.00
65758;BME280;52495;52.208;5.158;2023-03-15T02:36:52;101235.63;;;2.92;100.00
65758;BME280;52495;52.208;5.158;2023-03-15T02:39:21;101246.72;;;2.94;99.94
65758;BME280;52495;52.208;5.158;2023-03-15T02:41:51;101252.00;;;3.01;98.92
65758;BME280;52495;52.208;5.158;2023-03-15T02:44:22;101251.06;;;2.96;98.49
65758;BME280;52495;52.208;5.158;2023-03-15T02:46:54;101249.09;;;2.84;99.29
65758;BME280;52495;52.208;5.158;2023-03-15T02:49:25;101249.75;;;2.76;100.00
65758;BME280;52495;52.208;5.158;2023-03-15T02:51:53;101262.69;;;2.83;100.00
65758;BME280;52495;52.208;5.158;2023-03-15T02:54:20;101258.16;;;2.71;100.00
65758;BME280;52495;52.208;5.158;2023-03-15T02:56:47;101264.19;;;2.75;100.00
65758;BME280;52495;52.208;5.158;2023-03-15T02:59:14;101264.84;;;2.66;100.00
65758;BME280;52495;52.208;5.158;2023-03-15T03:01:41;101271.00;;;2.75;100.00
65758;BME280;52495;52.208;5.158;2023-03-15T03:04:12;101273.63;;;2.78;99.97
65758;BME280;52495;52.208;5.158;2023-03-15T03:06:39;101288.09;;;2.79;99.21
65758;BME280;52495;52.208;5.158;2023-03-15T03:09:09;101284.66;;;2.78;99.08
65758;BME280;52495;52.208;5.158;2023-03-15T03:11:37;101294.03;;;2.79;99.41
65758;BME280;52495;52.208;5.158;2023-03-15T03:14:04;101292.31;;;2.78;98.56
65758;BME280;52495;52.208;5.158;2023-03-15T03:16:31;101300.00;;;2.80;98.45
65758;BME280;52495;52.208;5.158;2023-03-15T03:18:58;101304.28;;;2.81;98.15
65758;BME280;52495;52.208;5.158;2023-03-15T03:21:29;101311.84;;;2.78;98.04
65758;BME280;52495;52.208;5.158;2023-03-15T03:23:56;101318.50;;;2.71;97.39
65758;BME280;52495;52.208;5.158;2023-03-15T03:26:22;101326.91;;;2.67;96.63
65758;BME280;52495;52.208;5.158;2023-03-15T03:28:53;101323.31;;;2.58;96.94
65758;BME280;52495;52.208;5.158;2023-03-15T03:31:23;101333.44;;;2.55;96.30
65758;BME280;52495;52.208;5.158;2023-03-15T03:33:52;101340.03;;;2.47;96.36
65758;BME280;52495;52.208;5.158;2023-03-15T03:36:18;101338.22;;;2.43;96.05
65758;BME280;52495;52.208;5.158;2023-03-15T03:38:47;101344.88;;;2.36;96.15
65758;BME280;52495;52.208;5.158;2023-03-15T03:41:14;101345.59;;;2.31;96.65
65758;BME280;52495;52.208;5.158;2023-03-15T03:43:41;101355.75;;;2.29;96.48
65758;BME280;52495;52.208;5.158;2023-03-15T03:46:08;101359.88;;;2.25;96.68
65758;BME280;52495;52.208;5.158;2023-03-15T03:48:40;101362.41;;;2.24;97.04
65758;BME280;52495;52.208;5.158;2023-03-15T03:51:06;101368.31;;;2.23;97.38
65758;BME280;52495;52.208;5.158;2023-03-15T03:53:33;101369.13;;;2.22;96.96
65758;BME280;52495;52.208;5.158;2023-03-15T03:56:03;101375.84;;;2.18;96.85
65758;BME280;52495;52.208;5.158;2023-03-15T03:58:30;101368.91;;;2.12;96.83
65758;BME280;52495;52.208;5.158;2023-03-15T04:01:02;101373.94;;;2.09;96.41
65758;BME280;52495;52.208;5.158;2023-03-15T04:03:32;101377.22;;;2.05;96.57
65758;BME280;52495;52.208;5.158;2023-03-15T04:06:09;101382.19;;;2.01;95.95
65758;BME280;52495;52.208;5.158;2023-03-15T04:08:40;101390.47;;;1.93;96.30
65758;BME280;52495;52.208;5.158;2023-03-15T04:11:11;101394.66;;;1.91;96.27
65758;BME280;52495;52.208;5.158;2023-03-15T04:13:42;101402.16;;;1.87;96.59
65758;BME280;52495;52.208;5.158;2023-03-15T04:16:10;101399.59;;;1.85;97.21
65758;BME280;52495;52.208;5.158;2023-03-15T04:18:53;101408.91;;;1.85;97.77
65758;BME280;52495;52.208;5.158;2023-03-15T04:21:20;101412.47;;;1.91;97.84
65758;BME280;52495;52.208;5.158;2023-03-15T04:23:51;101417.56;;;1.91;97.60
65758;BME280;52495;52.208;5.158;2023-03-15T04:26:37;101415.09;;;1.93;97.92
65758;BME280;52495;52.208;5.158;2023-03-15T04:29:27;101415.94;;;1.93;98.14
65758;BME280;52495;52.208;5.158;2023-03-15T04:32:16;101423.53;;;1.92;97.67
65758;BME280;52495;52.208;5.158;2023-03-15T04:34:56;101419.28;;;1.92;97.73
65758;BME280;52495;52.208;5.158;2023-03-15T04:37:56;101421.84;;;1.92;97.97
65758;BME280;52495;52.208;5.158;2023-03-15T04:40:41;101436.28;;;1.92;97.75
65758;BME280;52495;52.208;5.158;2023-03-15T04:43:33;101437.22;;;1.95;98.48
65758;BME280;52495;52.208;5.158;2023-03-15T04:46:20;101444.03;;;1.96;98.53
65758;BME280;52495;52.208;5.158;2023-03-15T04:49:05;101438.22;;;2.01;98.65
65758;BME280;52495;52.208;5.158;2023-03-15T04:51:46;101445.94;;;2.04;98.55
65758;BME280;52495;52.208;5.158;2023-03-15T04:54:39;101454.56;;;2.09;98.42
65758;BME280;52495;52.208;5.158;2023-03-15T04:57:24;101455.47;;;2.11;98.58
65758;BME280;52495;52.208;5.158;2023-03-15T05:00:12;101458.06;;;2.12;98.18
65758;BME280;52495;52.208;5.158;2023-03-15T05:02:59;101465.84;;;2.19;98.02
65758;BME280;52495;52.208;5.158;2023-03-15T05:05:45;101482.25;;;2.28;96.68
65758;BME280;52495;52.208;5.158;2023-03-15T05:08:32;101486.50;;;2.28;97.38
65758;BME280;52495;52.208;5.158;2023-03-15T05:11:24;101494.31;;;2.34;97.17
65758;BME280;52495;52.208;5.158;2023-03-15T05:14:12;101507.56;;;2.22;98.65
65758;BME280;52495;52.208;5.158;2023-03-15T05:17:00;101499.00;;;2.51;96.41
65758;BME280;52495;52.208;5.158;2023-03-15T05:19:39;101505.53;;;2.41;96.77
65758;BME280;52495;52.208;5.158;2023-03-15T05:22:39;101509.69;;;2.37;96.65
65758;BME280;52495;52.208;5.158;2023-03-15T05:25:25;101507.09;;;2.68;94.80
65758;BME280;52495;52.208;5.158;2023-03-15T05:27:57;101513.66;;;2.60;94.66
65758;BME280;52495;52.208;5.158;2023-03-15T05:30:41;101516.81;;;2.49;94.88
65758;BME280;52495;52.208;5.158;2023-03-15T05:33:20;101527.31;;;2.30;95.07
65758;BME280;52495;52.208;5.158;2023-03-15T05:36:10;101524.72;;;2.28;95.70
65758;BME280;52495;52.208;5.158;2023-03-15T05:38:59;101529.88;;;2.31;95.34
65758;BME280;52495;52.208;5.158;2023-03-15T05:41:53;101518.84;;;2.31;94.79
65758;BME280;52495;52.208;5.158;2023-03-15T05:44:47;101526.09;;;2.17;96.05
65758;BME280;52495;52.208;5.158;2023-03-15T05:47:33;101526.69;;;2.08;96.61
65758;BME280;52495;52.208;5.158;2023-03-15T05:50:09;101532.66;;;2.08;96.79
65758;BME280;52495;52.208;5.158;2023-03-15T05:52:53;101538.69;;;2.12;96.78
65758;BME280;52495;52.208;5.158;2023-03-15T05:55:34;101540.56;;;2.18;96.51
65758;BME280;52495;52.208;5.158;2023-03-15T05:58:22;101545.16;;;2.30;96.01
65758;BME280;52495;52.208;5.158;2023-03-15T06:01:17;101549.34;;;2.27;94.84
65758;BME280;52495;52.208;5.158;2023-03-15T06:04:03;101545.97;;;2.28;95.57
65758;BME280;52495;52.208;5.158;2023-03-15T06:06:33;101547.78;;;2.33;95.93
65758;BME280;52495;52.208;5.158;2023-03-15T06:09:03;101555.63;;;2.39;96.73
65758;BME280;52495;52.208;5.158;2023-03-15T06:11:30;101557.47;;;2.45;95.93
65758;BME280;52495;52.208;5.158;2023-03-15T06:13:58;101559.25;;;2.49;95.91
65758;BME280;52495;52.208;5.158;2023-03-15T06:16:46;101562.69;;;2.49;95.75
65758;BME280;52495;52.208;5.158;2023-03-15T06:19:13;101568.78;;;2.54;95.66
65758;BME280;52495;52.208;5.158;2023-03-15T06:21:41;101570.53;;;2.57;96.21
65758;BME280;52495;52.208;5.158;2023-03-15T06:24:14;101570.53;;;2.57;95.85
65758;BME280;52495;52.208;5.158;2023-03-15T06:26:41;101572.22;;;2.56;95.86
65758;BME280;52495;52.208;5.158;2023-03-15T06:29:08;101572.97;;;2.52;95.73
65758;BME280;52495;52.208;5.158;2023-03-15T06:31:35;101584.94;;;2.55;95.91
65758;BME280;52495;52.208;5.158;2023-03-15T06:34:05;101590.06;;;2.56;95.69
65758;BME280;52495;52.208;5.158;2023-03-15T06:36:33;101599.44;;;2.57;95.84
65758;BME280;52495;52.208;5.158;2023-03-15T06:39:03;101593.47;;;2.55;95.80
65758;BME280;52495;52.208;5.158;2023-03-15T06:41:30;101604.50;;;2.56;95.89
65758;BME280;52495;52.208;5.158;2023-03-15T06:44:04;101616.41;;;2.55;95.86
65758;BME280;52495;52.208;5.158;2023-03-15T06:46:32;101614.59;;;2.53;95.73
65758;BME280;52495;52.208;5.158;2023-03-15T06:48:59;101619.66;;;2.51;95.75
65758;BME280;52495;52.208;5.158;2023-03-15T06:51:26;101623.84;;;2.49;95.69
65758;BME280;52495;52.208;5.158;2023-03-15T06:53:53;101632.34;;;2.50;96.10
65758;BME280;52495;52.208;5.158;2023-03-15T06:56:21;101638.25;;;2.47;96.38
65758;BME280;52495;52.208;5.158;2023-03-15T06:58:48;101639.03;;;2.45;96.74
65758;BME280;52495;52.208;5.158;2023-03-15T07:01:15;101639.03;;;2.45;97.09
65758;BME280;52495;52.208;5.158;2023-03-15T07:03:42;101643.38;;;2.49;97.57
65758;BME280;52495;52.208;5.158;2023-03-15T07:06:08;101641.72;;;2.51;97.24
65758;BME280;52495;52.208;5.158;2023-03-15T07:08:35;101652.97;;;2.57;97.76
65758;BME280;52495;52.208;5.158;2023-03-15T07:11:02;101655.59;;;2.61;97.99
65758;BME280;52495;52.208;5.158;2023-03-15T07:13:32;101647.16;;;2.62;97.51
65758;BME280;52495;52.208;5.158;2023-03-15T07:15:58;101650.63;;;2.65;97.51
65758;BME280;52495;52.208;5.158;2023-03-15T07:18:25;101661.97;;;2.75;98.24
65758;BME280;52495;52.208;5.158;2023-03-15T07:20:55;101662.19;;;2.83;98.37
65758;BME280;52495;52.208;5.158;2023-03-15T07:23:23;101674.28;;;2.90;97.86
65758;BME280;52495;52.208;5.158;2023-03-15T07:25:50;101676.22;;;2.99;97.83
65758;BME280;52495;52.208;5.158;2023-03-15T07:28:18;101667.84;;;3.03;97.62
65758;BME280;52495;52.208;5.158;2023-03-15T07:30:53;101675.72;;;3.11;97.16
65758;BME280;52495;52.208;5.158;2023-03-15T07:33:20;101674.16;;;3.16;96.71
65758;BME280;52495;52.208;5.158;2023-03-15T07:35:47;101669.19;;;3.22;96.66
65758;BME280;52495;52.208;5.158;2023-03-15T07:38:14;101665.91;;;3.26;96.05
65758;BME280;52495;52.208;5.158;2023-03-15T07:40:41;101677.94;;;3.30;94.93
65758;BME280;52495;52.208;5.158;2023-03-15T07:43:08;101679.72;;;3.34;94.46
65758;BME280;52495;52.208;5.158;2023-03-15T07:45:35;101689.19;;;3.39;94.69
65758;BME280;52495;52.208;5.158;2023-03-15T07:48:03;101689.38;;;3.45;93.81
65758;BME280;52495;52.208;5.158;2023-03-15T07:50:29;101702.34;;;3.54;94.02
65758;BME280;52495;52.208;5.158;2023-03-15T07:52:56;101705.09;;;3.60;93.39
65758;BME280;52495;52.208;5.158;2023-03-15T07:55:23;101716.31;;;3.67;92.57
65758;BME280;52495;52.208;5.158;2023-03-15T07:57:50;101719.88;;;3.74;91.65
65758;BME280;52495;52.208;5.158;2023-03-15T08:00:20;101718.41;;;3.82;91.32
65758;BME280;52495;52.208;5.158;2023-03-15T08:02:47;101718.53;;;3.88;90.77
65758;BME280;52495;52.208;5.158;2023-03-15T08:05:15;101725.56;;;3.97;90.26
65758;BME280;52495;52.208;5.158;2023-03-15T08:07:44;101724.91;;;4.06;90.27
65758;BME280;52495;52.208;5.158;2023-03-15T08:10:12;101735.38;;;4.15;89.89
65758;BME280;52495;52.208;5.158;2023-03-15T08:12:39;101729.63;;;4.24;90.01
65758;BME280;52495;52.208;5.158;2023-03-15T08:15:08;101728.09;;;4.32;90.01
65758;BME280;52495;52.208;5.158;2023-03-15T08:17:36;101735.91;;;4.38;90.08
65758;BME280;52495;52.208;5.158;2023-03-15T08:20:03;101728.31;;;4.42;89.05
65758;BME280;52495;52.208;5.158;2023-03-15T08:22:32;101739.53;;;4.48;88.45
65758;BME280;52495;52.208;5.158;2023-03-15T08:24:59;101745.69;;;4.56;88.28
65758;BME280;52495;52.208;5.158;2023-03-15T08:27:26;101744.00;;;4.57;87.70
65758;BME280;52495;52.208;5.158;2023-03-15T08:29:52;101748.31;;;4.60;87.72
65758;BME280;52495;52.208;5.158;2023-03-15T08:32:19;101753.44;;;4.61;87.19
65758;BME280;52495;52.208;5.158;2023-03-15T08:34:46;101753.66;;;4.69;86.63
65758;BME280;52495;52.208;5.158;2023-03-15T08:37:13;101763.16;;;4.76;86.64
65758;BME280;52495;52.208;5.158;2023-03-15T08:39:42;101752.09;;;4.77;85.34
65758;BME280;52495;52.208;5.158;2023-03-15T08:42:09;101761.56;;;4.81;85.04
65758;BME280;52495;52.208;5.158;2023-03-15T08:44:36;101761.75;;;4.89;84.90
65758;BME280;52495;52.208;5.158;2023-03-15T08:47:02;101773.78;;;4.93;84.80
65758;BME280;52495;52.208;5.158;2023-03-15T08:49:31;101767.16;;;5.03;85.32
65758;BME280;52495;52.208;5.158;2023-03-15T08:51:57;101771.56;;;5.10;84.25
65758;BME280;52495;52.208;5.158;2023-03-15T08:54:24;101764.78;;;5.14;84.24
65758;BME280;52495;52.208;5.158;2023-03-15T08:56:53;101772.53;;;5.15;81.64
65758;BME280;52495;52.208;5.158;2023-03-15T08:59:20;101759.94;;;5.26;82.19
65758;BME280;52495;52.208;5.158;2023-03-15T09:01:46;101762.56;;;5.29;82.13
65758;BME280;52495;52.208;5.158;2023-03-15T09:04:13;101761.69;;;5.29;79.95
65758;BME280;52495;52.208;5.158;2023-03-15T09:06:40;101769.50;;;5.37;77.58
65758;BME280;52495;52.208;5.158;2023-03-15T09:09:07;101773.88;;;5.41;75.87
65758;BME280;52495;52.208;5.158;2023-03-15T09:11:34;101768.75;;;5.42;74.18
65758;BME280;52495;52.208;5.158;2023-03-15T09:14:02;101770.63;;;5.51;75.91
65758;BME280;52495;52.208;5.158;2023-03-15T09:16:29;101760.53;;;5.59;75.28
65758;BME280;52495;52.208;5.158;2023-03-15T09:18:56;101769.25;;;5.69;74.58
65758;BME280;52495;52.208;5.158;2023-03-15T09:21:22;101770.97;;;5.70;73.28
65758;BME280;52495;52.208;5.158;2023-03-15T09:23:50;101764.19;;;5.73;72.26
65758;BME280;52495;52.208;5.158;2023-03-15T09:26:17;101759.97;;;5.75;71.25
65758;BME280;52495;52.208;5.158;2023-03-15T09:28:43;101769.38;;;5.76;68.81
65758;BME280;52495;52.208;5.158;2023-03-15T09:31:11;101770.19;;;5.74;67.11
65758;BME280;52495;52.208;5.158;2023-03-15T09:33:38;101772.00;;;5.78;67.71
65758;BME280;52495;52.208;5.158;2023-03-15T09:36:05;101771.88;;;5.73;65.74
65758;BME280;52495;52.208;5.158;2023-03-15T09:38:32;101779.00;;;5.88;68.26
65758;BME280;52495;52.208;5.158;2023-03-15T09:40:59;101776.44;;;5.90;67.85
65758;BME280;52495;52.208;5.158;2023-03-15T09:43:55;101777.44;;;5.97;67.27
65758;BME280;52495;52.208;5.158;2023-03-15T09:46:29;101772.50;;;6.06;66.42
65758;BME280;52495;52.208;5.158;2023-03-15T09:49:02;101770.59;;;5.97;63.37
65758;BME280;52495;52.208;5.158;2023-03-15T09:51:37;101775.19;;;6.14;64.94
65758;BME280;52495;52.208;5.158;2023-03-15T09:54:10;101776.88;;;6.13;64.43
65758;BME280;52495;52.208;5.158;2023-03-15T09:56:40;101775.34;;;6.23;65.25
65758;BME280;52495;52.208;5.158;2023-03-15T09:59:10;101772.06;;;6.33;66.27
65758;BME280;52495;52.208;5.158;2023-03-15T10:01:40;101777.31;;;6.43;66.76
65758;BME280;52495;52.208;5.158;2023-03-15T10:04:11;101775.81;;;6.56;65.87
65758;BME280;52495;52.208;5.158;2023-03-15T10:06:42;101770.78;;;6.62;65.72
65758;BME280;52495;52.208;5.158;2023-03-15T10:09:16;101772.50;;;6.64;65.28
65758;BME280;52495;52.208;5.158;2023-03-15T10:11:46;101765.69;;;6.65;65.20
65758;BME280;52495;52.208;5.158;2023-03-15T10:14:23;101758.91;;;6.70;65.93
65758;BME280;52495;52.208;5.158;2023-03-15T10:16:54;101759.09;;;6.84;66.11
65758;BME280;52495;52.208;5.158;2023-03-15T10:19:28;101767.78;;;6.94;65.60
65758;BME280;52495;52.208;5.158;2023-03-15T10:22:01;101759.25;;;6.95;61.93
65758;BME280;52495;52.208;5.158;2023-03-15T10:24:34;101763.59;;;7.01;61.97
65758;BME280;52495;52.208;5.158;2023-03-15T10:27:13;101769.63;;;7.04;60.95
65758;BME280;52495;52.208;5.158;2023-03-15T10:29:42;101773.91;;;7.05;60.66
65758;BME280;52495;52.208;5.158;2023-03-15T10:32:15;101766.25;;;7.07;59.17
65758;BME280;52495;52.208;5.158;2023-03-15T10:34:47;101773.16;;;7.12;59.40
65758;BME280;52495;52.208;5.158;2023-03-15T10:37:15;101785.16;;;7.13;60.61
65758;BME280;52495;52.208;5.158;2023-03-15T10:39:43;101780.97;;;7.22;60.76
65758;BME280;52495;52.208;5.158;2023-03-15T10:42:24;101790.41;;;7.24;59.88
65758;BME280;52495;52.208;5.158;2023-03-15T10:44:51;101790.50;;;7.32;60.20
65758;BME280;52495;52.208;5.158;2023-03-15T10:47:20;101797.38;;;7.36;59.36
65758;BME280;52495;52.208;5.158;2023-03-15T10:49:47;101811.19;;;7.44;59.35
65758;BME280;52495;52.208;5.158;2023-03-15T10:52:26;101814.53;;;7.36;55.17
65758;BME280;52495;52.208;5.158;2023-03-15T10:54:53;101816.16;;;7.29;53.62
65758;BME280;52495;52.208;5.158;2023-03-15T10:57:21;101827.09;;;7.12;54.22
65758;BME280;52495;52.208;5.158;2023-03-15T10:59:57;101821.31;;;7.31;55.68
65758;BME280;52495;52.208;5.158;2023-03-15T11:02:26;101817.13;;;7.40;55.67
65758;BME280;52495;52.208;5.158;2023-03-15T11:04:59;101819.00;;;7.52;56.54
65758;BME280;52495;52.208;5.158;2023-03-15T11:07:28;101830.25;;;7.62;57.87
65758;BME280;52495;52.208;5.158;2023-03-15T11:09:58;101838.13;;;7.76;58.12
65758;BME280;52495;52.208;5.158;2023-03-15T11:12:27;101842.50;;;7.86;58.28
65758;BME280;52495;52.208;5.158;2023-03-15T11:14:57;101833.16;;;7.98;58.29
65758;BME280;52495;52.208;5.158;2023-03-15T11:17:29;101836.59;;;7.94;56.46
65758;BME280;52495;52.208;5.158;2023-03-15T11:19:59;101836.59;;;7.95;56.32
65758;BME280;52495;52.208;5.158;2023-03-15T11:22:37;101842.66;;;8.02;54.15
65758;BME280;52495;52.208;5.158;2023-03-15T11:25:11;101840.94;;;8.05;53.24
65758;BME280;52495;52.208;5.158;2023-03-15T11:27:39;101834.13;;;8.06;53.78
65758;BME280;52495;52.208;5.158;2023-03-15T11:30:12;101833.22;;;8.02;53.72
65758;BME280;52495;52.208;5.158;2023-03-15T11:32:42;101828.03;;;7.96;52.40
65758;BME280;52495;52.208;5.158;2023-03-15T11:35:13;101825.91;;;7.58;51.32
65758;BME280;52495;52.208;5.158;2023-03-15T11:37:44;101829.47;;;7.72;52.13
65758;BME280;52495;52.208;5.158;2023-03-15T11:40:16;101825.31;;;7.81;52.20
65758;BME280;52495;52.208;5.158;2023-03-15T11:42:48;101829.63;;;7.85;53.36
65758;BME280;52495;52.208;5.158;2023-03-15T11:45:28;101832.34;;;8.00;53.72
65758;BME280;52495;52.208;5.158;2023-03-15T11:48:24;101829.94;;;8.22;53.25
65758;BME280;52495;52.208;5.158;2023-03-15T11:50:54;101825.78;;;8.33;52.95
65758;BME280;52495;52.208;5.158;2023-03-15T11:53:22;101822.38;;;8.41;51.49
65758;BME280;52495;52.208;5.158;2023-03-15T11:55:51;101825.84;;;8.43;50.06
65758;BME280;52495;52.208;5.158;2023-03-15T11:58:31;101834.34;;;8.34;48.98
65758;BME280;52495;52.208;5.158;2023-03-15T12:01:02;101825.06;;;8.50;50.06
65758;BME280;52495;52.208;5.158;2023-03-15T12:03:35;101833.53;;;8.40;49.97
65758;BME280;52495;52.208;5.158;2023-03-15T12:06:04;101826.78;;;8.48;49.24
65758;BME280;52495;52.208;5.158;2023-03-15T12:08:44;101826.78;;;8.48;49.75
65758;BME280;52495;52.208;5.158;2023-03-15T12:11:36;101831.06;;;8.49;48.37
65758;BME280;52495;52.208;5.158;2023-03-15T12:14:05;101828.53;;;8.52;48.66
65758;BME280;52495;52.208;5.158;2023-03-15T12:16:38;101836.13;;;8.43;48.03
65758;BME280;52495;52.208;5.158;2023-03-15T12:19:13;101841.25;;;8.40;48.23
65758;BME280;52495;52.208;5.158;2023-03-15T12:21:43;101842.16;;;8.46;48.62
65758;BME280;52495;52.208;5.158;2023-03-15T12:24:15;101836.28;;;8.58;48.19
65758;BME280;52495;52.208;5.158;2023-03-15T12:26:44;101836.34;;;8.68;46.37
65758;BME280;52495;52.208;5.158;2023-03-15T12:29:16;101835.41;;;8.56;47.36
65758;BME280;52495;52.208;5.158;2023-03-15T12:31:50;101839.59;;;8.45;46.27
65758;BME280;52495;52.208;5.158;2023-03-15T12:34:41;101843.03;;;8.47;47.06
65758;BME280;52495;52.208;5.158;2023-03-15T12:37:13;101833.69;;;8.52;45.50
65758;BME280;52495;52.208;5.158;2023-03-15T12:39:44;101832.03;;;8.63;45.80
65758;BME280;52495;52.208;5.158;2023-03-15T12:45:33;101835.47;;;8.67;43.58
65758;BME280;52495;52.208;5.158;2023-03-15T12:48:19;101831.31;;;8.88;44.99
65758;BME280;52495;52.208;5.158;2023-03-15T12:51:09;101827.09;;;8.98;43.44
65758;BME280;52495;52.208;5.158;2023-03-15T12:53:48;101828.84;;;9.06;42.63
65758;BME280;52495;52.208;5.158;2023-03-15T12:56:32;101823.75;;;9.19;44.39
65758;BME280;52495;52.208;5.158;2023-03-15T12:59:21;101822.94;;;9.31;43.40
65758;BME280;52495;52.208;5.158;2023-03-15T13:01:50;101821.25;;;9.33;44.40
65758;BME280;52495;52.208;5.158;2023-03-15T13:04:18;101814.41;;;9.44;45.69
65758;BME280;52495;52.208;5.158;2023-03-15T13:10:15;101799.84;;;9.63;43.71
65758;BME280;52495;52.208;5.158;2023-03-15T13:12:52;101802.44;;;9.68;44.21
65758;BME280;52495;52.208;5.158;2023-03-15T13:15:24;101798.16;;;9.70;42.85
65758;BME280;52495;52.208;5.158;2023-03-15T13:17:56;101808.44;;;9.64;42.96
65758;BME280;52495;52.208;5.158;2023-03-15T13:20:40;101797.25;;;9.66;44.20
65758;BME280;52495;52.208;5.158;2023-03-15T13:23:13;101801.59;;;9.69;44.25
65758;BME280;52495;52.208;5.158;2023-03-15T13:25:59;101799.00;;;9.75;44.29
65758;BME280;52495;52.208;5.158;2023-03-15T13:28:31;101810.16;;;9.63;43.33
65758;BME280;52495;52.208;5.158;2023-03-15T13:31:10;101809.31;;;9.70;44.53